Time;durP1;ratioP1;P1;durP2;ratioP2;P2;SDS_P1;SDS_P2;PMS_P1;PMS_P2;Temp;Humidity;BMP_temperature;BMP_pressure;BME280_temperature;BME280_humidity;BME280_pressure;Samples;Min_cycle;Max_cycle;Signal;HPM_P1;HPM_P2
2024/01/12 00:01:44;;;;;;;1.73;1.63;;;4.30;99.90;;;;;;4971835;28;20634;-81
2024/01/12 00:04:10;;;;;;;2.60;2.50;;;4.30;99.90;;;;;;5006019;28;20238;-81
2024/01/12 00:06:36;;;;;;;2.07;1.20;;;4.20;99.90;;;;;;5000970;28;20261;-83
2024/01/12 00:09:12;;;;;;;0.60;0.60;;;4.50;99.90;;;;;;4985673;28;20197;-83
2024/01/12 00:11:38;;;;;;;0.43;0.43;;;4.30;99.90;;;;;;5000148;28;20195;-81
2024/01/12 00:14:03;;;;;;;0.60;0.60;;;4.40;99.90;;;;;;4999224;28;20231;-81
2024/01/12 00:16:29;;;;;;;0.67;0.67;;;4.20;99.90;;;;;;4997916;28;20231;-81
2024/01/12 00:18:55;;;;;;;0.67;0.60;;;4.20;99.90;;;;;;5016177;28;20245;-81
2024/01/12 00:21:20;;;;;;;0.50;0.50;;;4.40;99.90;;;;;;5015209;28;20231;-81
2024/01/12 00:23:47;;;;;;;0.60;0.60;;;4.40;99.90;;;;;;5016268;28;20276;-81
2024/01/12 00:26:13;;;;;;;0.67;0.67;;;4.40;99.90;;;;;;4982442;28;20277;-81
2024/01/12 00:28:38;;;;;;;3.60;1.73;;;4.20;99.90;;;;;;4998983;28;20314;-80
2024/01/12 00:31:04;;;;;;;0.40;0.40;;;4.20;99.90;;;;;;4999388;28;20302;-81
2024/01/12 00:33:30;;;;;;;0.93;0.93;;;4.10;99.90;;;;;;5015089;28;20292;-81
2024/01/12 00:35:55;;;;;;;0.20;0.20;;;4.20;99.90;;;;;;4982741;28;20188;-81
2024/01/12 00:38:21;;;;;;;0.50;0.50;;;4.40;99.90;;;;;;4999227;28;20334;-80
2024/01/12 00:40:47;;;;;;;0.30;0.30;;;4.40;99.90;;;;;;4999370;28;20318;-81
2024/01/12 00:43:13;;;;;;;0.80;0.80;;;4.10;99.90;;;;;;4998662;28;20238;-82
2024/01/12 00:45:38;;;;;;;9.03;0.93;;;4.40;99.90;;;;;;4998832;28;20231;-81
2024/01/12 00:48:05;;;;;;;0.30;0.30;;;4.50;99.90;;;;;;5030755;28;20234;-80
2024/01/12 00:50:31;;;;;;;2.73;0.90;;;4.20;99.90;;;;;;5015222;28;20731;-82
2024/01/12 00:52:56;;;;;;;0.50;0.50;;;4.20;99.90;;;;;;4998649;28;20273;-80
2024/01/12 00:55:22;;;;;;;0.90;0.90;;;4.30;99.90;;;;;;4999132;28;20297;-81
2024/01/12 00:57:48;;;;;;;0.60;0.60;;;4.10;99.90;;;;;;4984426;28;21112;-80
2024/01/12 01:00:14;;;;;;;0.60;0.60;;;4.50;99.90;;;;;;4973353;28;20668;-82
2024/01/12 01:02:40;;;;;;;0.57;0.57;;;4.50;99.90;;;;;;4983184;28;20230;-82
2024/01/12 01:05:06;;;;;;;4.70;1.33;;;4.20;99.90;;;;;;4982268;28;20239;-81
2024/01/12 01:07:32;;;;;;;0.40;0.40;;;4.30;99.90;;;;;;4992437;28;20211;-81
2024/01/12 01:09:57;;;;;;;0.30;0.30;;;4.60;99.90;;;;;;4998274;28;20923;-81
2024/01/12 01:12:23;;;;;;;0.47;0.47;;;4.20;99.90;;;;;;4998038;28;20281;-80
2024/01/12 01:14:49;;;;;;;0.83;0.83;;;4.50;99.90;;;;;;4982706;28;20207;-81
2024/01/12 01:17:14;;;;;;;1.67;0.77;;;4.30;99.90;;;;;;4982001;28;20699;-80
2024/01/12 01:19:40;;;;;;;2.33;1.00;;;4.30;99.90;;;;;;4998357;28;20554;-81
2024/01/12 01:22:06;;;;;;;1.90;0.87;;;4.50;99.90;;;;;;4982062;28;20225;-81
2024/01/12 01:24:32;;;;;;;0.30;0.30;;;4.20;99.90;;;;;;4999103;28;20223;-82
2024/01/12 01:26:58;;;;;;;0.40;0.40;;;4.40;99.90;;;;;;4998788;28;20187;-81
2024/01/12 01:29:24;;;;;;;0.57;0.57;;;4.20;99.90;;;;;;4965701;28;20221;-81
2024/01/12 01:31:50;;;;;;;3.13;1.53;;;4.40;99.90;;;;;;4998782;28;20219;-81
2024/01/12 01:34:16;;;;;;;0.97;0.90;;;4.50;99.90;;;;;;5014087;28;20227;-82
2024/01/12 01:36:42;;;;;;;0.70;0.70;;;4.60;99.90;;;;;;4998815;28;20733;-81
2024/01/12 01:39:08;;;;;;;0.87;0.77;;;4.40;99.90;;;;;;4998526;28;20203;-82
2024/01/12 01:41:35;;;;;;;0.27;0.27;;;4.40;99.90;;;;;;4983106;28;20195;-81
2024/01/12 01:44:00;;;;;;;0.40;0.40;;;4.40;99.90;;;;;;4982473;28;20229;-81
2024/01/12 01:46:27;;;;;;;1.37;1.37;;;4.60;99.90;;;;;;5014543;28;20766;-81
2024/01/12 01:48:53;;;;;;;1.13;1.13;;;4.40;99.90;;;;;;4998264;28;20641;-81
2024/01/12 01:51:19;;;;;;;0.70;0.70;;;4.70;99.90;;;;;;4980939;28;20471;-80
2024/01/12 01:53:45;;;;;;;0.53;0.53;;;4.60;99.90;;;;;;4998791;28;20278;-82
2024/01/12 01:56:11;;;;;;;0.30;0.30;;;4.50;99.90;;;;;;4998247;28;20707;-80
2024/01/12 01:58:38;;;;;;;1.00;1.00;;;4.60;99.90;;;;;;4997788;28;20219;-81
2024/01/12 02:01:05;;;;;;;1.10;1.10;;;4.60;99.90;;;;;;4981679;28;20224;-81
2024/01/12 02:03:34;;;;;;;1.07;0.97;;;4.30;99.90;;;;;;4998155;28;20219;-81
2024/01/12 02:05:59;;;;;;;2.07;1.87;;;4.40;99.90;;;;;;4997993;28;20198;-80
2024/01/12 02:08:26;;;;;;;0.93;0.93;;;4.50;99.90;;;;;;4982693;28;20913;-82
2024/01/12 02:10:53;;;;;;;1.60;1.50;;;4.20;99.90;;;;;;4981784;28;20354;-80
2024/01/12 02:13:19;;;;;;;0.33;0.33;;;4.30;99.90;;;;;;4996006;28;20257;-82
2024/01/12 02:15:45;;;;;;;2.13;1.43;;;4.20;99.90;;;;;;4998098;28;20226;-81
2024/01/12 02:18:11;;;;;;;1.57;1.53;;;4.20;99.90;;;;;;4981705;28;20195;-80
2024/01/12 02:20:38;;;;;;;0.80;0.80;;;4.30;99.90;;;;;;4998263;28;21002;-80
2024/01/12 02:23:03;;;;;;;1.00;1.00;;;4.30;99.90;;;;;;4998435;28;20231;-80
2024/01/12 02:25:29;;;;;;;1.03;1.03;;;4.50;99.90;;;;;;4981249;28;20224;-80
2024/01/12 02:27:55;;;;;;;0.47;0.40;;;4.30;99.90;;;;;;4997383;28;20223;-82
2024/01/12 02:30:21;;;;;;;2.43;2.33;;;4.30;99.90;;;;;;4998169;28;20223;-81
2024/01/12 02:32:47;;;;;;;1.20;1.07;;;4.30;99.90;;;;;;4997937;28;20655;-81
2024/01/12 02:35:13;;;;;;;0.50;0.50;;;4.50;99.90;;;;;;4997922;28;20261;-81
2024/01/12 02:37:39;;;;;;;0.53;0.53;;;4.40;99.90;;;;;;4998064;28;20306;-81
2024/01/12 02:40:06;;;;;;;0.93;0.93;;;4.10;99.90;;;;;;4998045;28;20311;-81
2024/01/12 02:42:32;;;;;;;2.23;2.13;;;4.10;99.90;;;;;;5000934;28;20619;-81
2024/01/12 02:44:58;;;;;;;0.87;0.50;;;4.50;99.90;;;;;;4985857;28;20207;-81
2024/01/12 02:47:23;;;;;;;3.93;2.30;;;4.20;99.90;;;;;;5001298;28;20225;-81
2024/01/12 02:49:49;;;;;;;1.03;0.93;;;4.40;99.90;;;;;;5001626;28;20272;-81
2024/01/12 02:52:15;;;;;;;1.10;1.10;;;4.20;99.90;;;;;;5000649;28;20307;-80
2024/01/12 02:54:40;;;;;;;0.70;0.70;;;4.20;99.90;;;;;;4984363;28;20259;-80
2024/01/12 02:57:06;;;;;;;0.73;0.73;;;4.30;99.90;;;;;;5000882;28;20202;-81
2024/01/12 02:59:32;;;;;;;0.73;0.73;;;4.50;99.90;;;;;;4985721;28;20579;-81
2024/01/12 03:01:58;;;;;;;0.40;0.40;;;4.50;99.90;;;;;;5017175;28;20226;-81
2024/01/12 03:04:23;;;;;;;4.67;1.83;;;4.40;99.90;;;;;;5001001;28;20798;-80
2024/01/12 03:06:49;;;;;;;8.70;2.40;;;4.60;99.90;;;;;;5001438;28;20265;-80
2024/01/12 03:09:15;;;;;;;6.37;1.13;;;4.50;99.90;;;;;;5016270;28;20191;-81
2024/01/12 03:11:41;;;;;;;0.80;0.80;;;4.40;99.90;;;;;;4985745;28;20192;-81
2024/01/12 03:14:07;;;;;;;0.70;0.70;;;4.40;99.90;;;;;;4984376;28;20707;-80
2024/01/12 03:16:33;;;;;;;0.50;0.50;;;4.60;99.90;;;;;;5000299;28;20644;-81
2024/01/12 03:18:59;;;;;;;0.60;0.60;;;4.70;99.90;;;;;;5000837;28;20350;-82
2024/01/12 03:21:25;;;;;;;2.70;1.10;;;4.50;99.90;;;;;;5000321;28;20218;-82
2024/01/12 03:23:50;;;;;;;0.83;0.50;;;4.60;99.90;;;;;;5000762;28;20758;-81
2024/01/12 03:26:16;;;;;;;0.77;0.77;;;4.70;99.90;;;;;;5000941;28;21155;-81
2024/01/12 03:28:42;;;;;;;1.20;0.83;;;4.50;99.90;;;;;;4999821;28;20228;-82
2024/01/12 03:31:07;;;;;;;0.60;0.60;;;4.60;99.90;;;;;;5020276;28;20258;-81
2024/01/12 03:33:33;;;;;;;1.07;1.07;;;4.60;99.90;;;;;;4999508;28;20238;-80
2024/01/12 03:35:59;;;;;;;0.43;0.43;;;4.70;99.90;;;;;;4984292;28;20257;-81
2024/01/12 03:38:25;;;;;;;1.33;1.30;;;4.50;99.90;;;;;;5001128;28;20728;-81
2024/01/12 03:40:51;;;;;;;1.13;1.10;;;4.70;99.90;;;;;;4999885;28;20215;-80
2024/01/12 03:43:16;;;;;;;0.53;0.53;;;4.70;99.90;;;;;;4983800;28;20227;-81
2024/01/12 03:45:42;;;;;;;1.83;1.73;;;4.50;99.90;;;;;;4983700;28;20277;-81
2024/01/12 03:48:08;;;;;;;0.80;0.80;;;4.40;99.90;;;;;;4984707;28;20279;-81
2024/01/12 03:50:33;;;;;;;0.40;0.40;;;4.50;99.90;;;;;;4984445;28;21153;-81
2024/01/12 03:52:59;;;;;;;0.40;0.40;;;4.50;99.90;;;;;;4999670;28;20250;-81
2024/01/12 03:55:25;;;;;;;0.40;0.40;;;4.30;99.90;;;;;;4999689;28;20675;-80
2024/01/12 03:57:50;;;;;;;0.60;0.60;;;4.40;99.90;;;;;;5000455;28;20238;-81
2024/01/12 04:00:16;;;;;;;0.60;0.60;;;4.30;99.90;;;;;;4982737;28;20184;-80
2024/01/12 04:02:42;;;;;;;9.60;0.60;;;4.20;99.90;;;;;;5016700;28;20190;-81
2024/01/12 04:05:09;;;;;;;0.40;0.40;;;4.30;99.90;;;;;;5016715;28;20362;-81
2024/01/12 04:07:35;;;;;;;0.73;0.73;;;4.30;99.90;;;;;;5000557;28;20215;-80
2024/01/12 04:10:00;;;;;;;1.00;1.00;;;4.20;99.90;;;;;;4983962;28;20235;-81
2024/01/12 04:12:26;;;;;;;1.20;1.10;;;4.30;99.90;;;;;;4999954;28;20604;-82
2024/01/12 04:14:52;;;;;;;0.30;0.30;;;4.40;99.90;;;;;;5019910;28;20216;-82
2024/01/12 04:17:18;;;;;;;0.40;0.40;;;4.30;99.90;;;;;;5015523;28;20300;-81
2024/01/12 04:19:43;;;;;;;0.33;0.33;;;4.30;99.90;;;;;;4999632;28;20227;-81
2024/01/12 04:22:09;;;;;;;1.43;1.30;;;4.10;99.90;;;;;;4983442;28;20222;-82
2024/01/12 04:24:35;;;;;;;0.70;0.70;;;4.10;99.90;;;;;;4999648;28;20219;-80
2024/01/12 04:27:01;;;;;;;3.93;0.83;;;4.20;99.90;;;;;;5015318;28;20202;-82
2024/01/12 04:29:26;;;;;;;0.67;0.63;;;4.30;99.90;;;;;;4982434;28;20241;-81
2024/01/12 04:31:52;;;;;;;3.13;1.37;;;4.40;99.90;;;;;;4982788;28;20281;-81
2024/01/12 04:34:18;;;;;;;0.40;0.40;;;4.50;99.90;;;;;;4982638;28;20262;-81
2024/01/12 04:36:44;;;;;;;0.40;0.40;;;4.40;99.90;;;;;;5015661;28;20246;-80
2024/01/12 04:39:09;;;;;;;0.60;0.60;;;4.50;99.90;;;;;;4998566;28;20187;-80
2024/01/12 04:41:35;;;;;;;2.20;1.03;;;4.40;99.90;;;;;;4999727;28;20223;-81
2024/01/12 04:44:01;;;;;;;0.70;0.70;;;4.50;99.90;;;;;;4982772;28;20818;-81
2024/01/12 04:46:28;;;;;;;0.77;0.60;;;4.60;99.90;;;;;;4998286;28;20231;-80
2024/01/12 04:48:53;;;;;;;0.80;0.80;;;4.50;99.90;;;;;;5000077;28;20317;-80
2024/01/12 04:51:22;;;;;;;1.37;1.17;;;4.60;99.90;;;;;;4998416;28;20231;-82
2024/01/12 04:53:48;;;;;;;0.80;0.80;;;4.40;99.90;;;;;;4999217;28;20255;-80
2024/01/12 04:56:13;;;;;;;0.63;0.50;;;4.40;99.90;;;;;;4982638;28;20218;-81
2024/01/12 04:58:40;;;;;;;2.00;1.70;;;4.60;99.90;;;;;;5015340;28;20799;-81
2024/01/12 05:01:05;;;;;;;0.60;0.60;;;4.60;99.90;;;;;;4998644;28;20233;-82
2024/01/12 05:03:31;;;;;;;0.73;0.73;;;4.60;99.90;;;;;;5014415;28;20230;-81
2024/01/12 05:05:57;;;;;;;0.50;0.50;;;4.80;99.90;;;;;;5015354;28;20191;-82
2024/01/12 05:08:23;;;;;;;1.90;1.33;;;4.70;99.90;;;;;;5001796;28;20226;-82
2024/01/12 05:10:49;;;;;;;0.60;0.60;;;4.80;99.90;;;;;;5030374;28;20231;-82
2024/01/12 05:13:14;;;;;;;0.70;0.70;;;4.80;99.90;;;;;;4998562;28;20242;-82
2024/01/12 05:15:40;;;;;;;0.20;0.20;;;4.90;99.90;;;;;;4981876;28;20422;-80
2024/01/12 05:18:06;;;;;;;0.23;0.23;;;4.80;99.90;;;;;;4982157;28;20199;-82
2024/01/12 05:20:32;;;;;;;1.60;1.47;;;5.00;99.90;;;;;;4997752;28;20580;-81
2024/01/12 05:22:58;;;;;;;0.30;0.30;;;4.90;99.90;;;;;;5014584;28;20219;-81
2024/01/12 05:25:23;;;;;;;0.57;0.50;;;5.00;99.90;;;;;;4998131;28;20227;-81
2024/01/12 05:27:49;;;;;;;0.97;0.97;;;4.90;99.90;;;;;;4982254;28;20679;-81
2024/01/12 05:30:15;;;;;;;1.97;1.80;;;5.10;99.90;;;;;;4998297;28;20345;-81
2024/01/12 05:32:41;;;;;;;0.43;0.43;;;5.10;99.90;;;;;;4999269;28;20208;-80
2024/01/12 05:35:07;;;;;;;0.30;0.30;;;5.50;99.90;;;;;;4981743;28;20231;-81
2024/01/12 05:37:32;;;;;;;1.07;1.07;;;5.60;99.90;;;;;;4998555;28;21114;-82
2024/01/12 05:39:58;;;;;;;0.20;0.20;;;5.60;99.90;;;;;;5014357;28;20330;-81
2024/01/12 05:42:24;;;;;;;4.73;0.53;;;5.40;99.90;;;;;;4981554;28;20258;-81
2024/01/12 05:44:50;;;;;;;0.20;0.20;;;5.40;99.90;;;;;;4998761;28;20643;-79
2024/01/12 05:47:15;;;;;;;0.30;0.30;;;5.50;99.90;;;;;;4988220;28;20219;-80
2024/01/12 05:49:41;;;;;;;0.20;0.20;;;5.50;99.90;;;;;;5030531;28;20341;-81
2024/01/12 05:52:07;;;;;;;0.47;0.47;;;5.50;99.90;;;;;;4998173;28;20223;-81
2024/01/12 05:54:32;;;;;;;0.20;0.20;;;5.50;99.90;;;;;;4997977;28;20238;-81
2024/01/12 05:56:59;;;;;;;1.80;0.60;;;5.40;99.90;;;;;;4997957;28;20198;-80
2024/01/12 05:59:24;;;;;;;0.30;0.30;;;5.40;99.90;;;;;;5014316;28;20191;-82
2024/01/12 06:01:50;;;;;;;1.30;1.13;;;5.40;99.90;;;;;;4998257;28;20222;-81
2024/01/12 06:04:16;;;;;;;7.03;0.83;;;5.30;99.90;;;;;;4998492;28;20678;-82
2024/01/12 06:06:42;;;;;;;0.40;0.40;;;5.30;99.90;;;;;;4981523;28;20522;-81
2024/01/12 06:09:08;;;;;;;0.80;0.80;;;5.40;99.90;;;;;;5029476;28;20191;-82
2024/01/12 06:11:34;;;;;;;0.30;0.30;;;5.40;99.90;;;;;;4998093;28;20191;-81
2024/01/12 06:14:00;;;;;;;3.23;2.40;;;5.30;99.90;;;;;;4997334;28;20231;-81
2024/01/12 06:16:26;;;;;;;1.60;1.50;;;5.30;99.90;;;;;;5016650;28;20223;-81
2024/01/12 06:18:52;;;;;;;0.40;0.40;;;5.40;99.90;;;;;;4985083;28;20250;-82
2024/01/12 06:21:17;;;;;;;0.30;0.30;;;5.40;99.90;;;;;;5018295;28;20712;-81
2024/01/12 06:23:43;;;;;;;0.30;0.30;;;5.40;99.90;;;;;;5002149;28;20548;-80
2024/01/12 06:26:09;;;;;;;2.67;1.00;;;5.30;99.90;;;;;;4969009;28;20228;-81
2024/01/12 06:28:35;;;;;;;1.60;1.00;;;5.30;99.90;;;;;;4998854;28;20213;-80
2024/01/12 06:31:00;;;;;;;0.30;0.30;;;5.30;99.90;;;;;;4962380;28;20299;-81
2024/01/12 06:33:26;;;;;;;1.87;1.53;;;5.10;99.90;;;;;;5001793;28;20253;-81
2024/01/12 06:35:52;;;;;;;0.30;0.30;;;5.20;99.90;;;;;;4968187;28;20197;-82
2024/01/12 06:38:17;;;;;;;0.30;0.30;;;5.00;99.90;;;;;;4967249;28;20298;-80
2024/01/12 06:40:43;;;;;;;0.33;0.33;;;5.20;99.90;;;;;;4986047;28;20647;-80
2024/01/12 06:43:09;;;;;;;0.20;0.20;;;5.20;99.90;;;;;;4987017;28;20234;-80
2024/01/12 06:45:34;;;;;;;13.33;1.80;;;5.30;99.90;;;;;;4987857;28;20235;-81
2024/01/12 06:48:00;;;;;;;0.40;0.40;;;5.30;99.90;;;;;;4983783;28;20283;-81
2024/01/12 06:50:28;;;;;;;0.40;0.40;;;5.20;99.90;;;;;;5007912;28;21072;-80
2024/01/12 06:52:56;;;;;;;5.20;0.80;;;5.10;99.90;;;;;;5000665;28;20227;-81
2024/01/12 06:55:22;;;;;;;16.33;2.00;;;5.20;99.90;;;;;;5001006;28;20246;-81
2024/01/12 06:57:47;;;;;;;0.40;0.40;;;5.30;99.90;;;;;;5000760;28;20231;-80
2024/01/12 07:00:15;;;;;;;0.63;0.40;;;5.30;99.90;;;;;;5033644;28;20691;-81
2024/01/12 07:02:40;;;;;;;1.27;0.77;;;5.30;99.90;;;;;;5001651;28;20184;-80
2024/01/12 07:05:07;;;;;;;0.37;0.30;;;5.50;99.90;;;;;;4983629;28;20555;-81
2024/01/12 07:07:33;;;;;;;1.13;1.13;;;5.60;99.90;;;;;;5000867;28;20849;-80
2024/01/12 07:09:59;;;;;;;0.73;0.33;;;5.60;99.90;;;;;;5000926;28;20223;-81
2024/01/12 07:12:24;;;;;;;0.73;0.73;;;5.60;99.90;;;;;;5000331;28;20289;-80
2024/01/12 07:14:50;;;;;;;0.20;0.20;;;5.60;99.90;;;;;;4983742;28;20203;-80
2024/01/12 07:17:16;;;;;;;2.93;1.07;;;5.60;99.90;;;;;;5000351;28;20285;-80
2024/01/12 07:19:44;;;;;;;0.50;0.50;;;5.60;99.90;;;;;;4999017;28;20219;-80
2024/01/12 07:22:09;;;;;;;6.20;0.90;;;5.50;99.90;;;;;;5000290;28;20227;-81
2024/01/12 07:24:35;;;;;;;0.30;0.30;;;5.50;99.90;;;;;;5000025;28;20289;-81
2024/01/12 07:27:01;;;;;;;3.70;0.87;;;5.40;99.90;;;;;;4982813;28;20605;-81
2024/01/12 07:29:26;;;;;;;0.90;0.90;;;5.40;99.90;;;;;;4985180;28;20202;-80
2024/01/12 07:31:52;;;;;;;0.43;0.43;;;5.30;99.90;;;;;;4983580;28;20330;-82
2024/01/12 07:34:18;;;;;;;0.60;0.60;;;5.40;99.90;;;;;;5000380;28;20279;-80
2024/01/12 07:36:44;;;;;;;0.57;0.57;;;5.30;99.90;;;;;;5000213;28;20586;-79
2024/01/12 07:39:10;;;;;;;0.60;0.60;;;5.40;99.90;;;;;;4999204;28;20179;-81
2024/01/12 07:41:36;;;;;;;3.73;1.50;;;5.40;99.90;;;;;;5000368;28;20209;-81
2024/01/12 07:44:01;;;;;;;2.47;2.23;;;5.30;99.90;;;;;;4999279;28;20231;-81
2024/01/12 07:46:28;;;;;;;0.50;0.47;;;5.30;99.90;;;;;;4998975;28;20231;-82
2024/01/12 07:48:55;;;;;;;0.60;0.60;;;5.30;99.90;;;;;;4999590;28;20441;-81
2024/01/12 07:51:21;;;;;;;0.37;0.37;;;5.40;99.90;;;;;;4983171;28;20687;-80
2024/01/12 07:53:47;;;;;;;3.77;1.13;;;5.50;99.90;;;;;;4982517;28;20253;-81
2024/01/12 07:56:13;;;;;;;0.30;0.30;;;5.50;99.90;;;;;;4999044;28;20215;-81
2024/01/12 07:58:38;;;;;;;0.30;0.30;;;5.40;99.90;;;;;;4983116;28;20920;-80
2024/01/12 08:01:07;;;;;;;1.80;1.13;;;5.40;99.90;;;;;;5032144;28;20622;-81
2024/01/12 08:03:33;;;;;;;0.20;0.20;;;5.50;99.90;;;;;;4999830;28;20739;-81
2024/01/12 08:06:01;;;;;;;0.20;0.20;;;5.50;99.90;;;;;;4999259;28;20451;-80
2024/01/12 08:08:27;;;;;;;0.30;0.30;;;5.40;99.90;;;;;;4983918;28;20628;-82
2024/01/12 08:10:52;;;;;;;0.30;0.30;;;5.40;99.90;;;;;;5015949;28;20223;-83
2024/01/12 08:13:18;;;;;;;0.30;0.30;;;5.40;99.90;;;;;;5015610;28;20223;-81
2024/01/12 08:15:44;;;;;;;0.40;0.40;;;5.40;99.90;;;;;;5014889;28;20226;-80
2024/01/12 08:18:09;;;;;;;0.57;0.57;;;5.30;99.90;;;;;;4998886;28;20226;-81
2024/01/12 08:20:35;;;;;;;0.23;0.23;;;5.40;99.90;;;;;;4984399;28;20192;-81
2024/01/12 08:23:01;;;;;;;6.00;2.10;;;5.40;99.90;;;;;;5000715;28;20683;-84
2024/01/12 08:25:26;;;;;;;0.70;0.70;;;5.30;99.90;;;;;;5000655;28;20334;-84
2024/01/12 08:27:52;;;;;;;1.03;0.63;;;5.40;99.90;;;;;;5000823;28;20800;-84
2024/01/12 08:30:18;;;;;;;0.90;0.87;;;5.40;99.90;;;;;;4984937;28;20231;-85
2024/01/12 08:32:44;;;;;;;0.30;0.30;;;5.30;99.90;;;;;;5016993;28;20247;-85
2024/01/12 08:35:09;;;;;;;0.50;0.50;;;5.50;99.90;;;;;;4991143;28;20230;-84
2024/01/12 08:37:35;;;;;;;0.30;0.30;;;5.30;99.90;;;;;;5015014;28;20223;-85
2024/01/12 08:40:01;;;;;;;0.87;0.87;;;5.30;99.90;;;;;;5000739;28;21014;-84
2024/01/12 08:42:27;;;;;;;0.90;0.90;;;5.40;99.90;;;;;;4991815;28;20645;-85
2024/01/12 08:44:53;;;;;;;0.93;0.83;;;5.40;99.90;;;;;;5017544;28;20199;-84
2024/01/12 08:47:21;;;;;;;0.40;0.40;;;5.30;99.90;;;;;;4993134;28;20259;-83
2024/01/12 08:49:47;;;;;;;0.33;0.33;;;5.30;99.90;;;;;;5017341;28;20219;-84
2024/01/12 08:52:13;;;;;;;0.40;0.40;;;5.30;99.90;;;;;;5016850;28;20241;-84
2024/01/12 08:54:38;;;;;;;0.47;0.47;;;5.30;99.90;;;;;;4999591;28;20261;-85
2024/01/12 08:57:04;;;;;;;3.10;0.60;;;5.30;99.90;;;;;;4984073;28;20175;-85
2024/01/12 08:59:30;;;;;;;1.53;1.50;;;5.30;99.90;;;;;;5002252;28;20191;-84
2024/01/12 09:01:57;;;;;;;1.47;1.47;;;5.40;99.90;;;;;;5000762;28;20618;-84
2024/01/12 09:04:23;;;;;;;0.30;0.30;;;5.40;99.90;;;;;;4984315;28;20219;-84
2024/01/12 09:06:50;;;;;;;0.30;0.30;;;5.40;99.90;;;;;;4983450;28;20222;-85
2024/01/12 09:09:16;;;;;;;0.20;0.20;;;5.50;99.90;;;;;;4999606;28;20202;-85
2024/01/12 09:11:42;;;;;;;0.40;0.40;;;5.60;99.90;;;;;;4984004;28;20282;-85
2024/01/12 09:14:08;;;;;;;1.97;1.20;;;5.60;99.90;;;;;;5016840;28;20300;-84
2024/01/12 09:16:33;;;;;;;0.20;0.20;;;5.40;99.90;;;;;;5016512;28;20226;-84
2024/01/12 09:18:59;;;;;;;0.30;0.30;;;5.60;99.90;;;;;;4983913;28;20219;-84
2024/01/12 09:21:25;;;;;;;0.57;0.57;;;5.40;99.90;;;;;;4983721;28;20683;-85
2024/01/12 09:23:50;;;;;;;1.50;1.13;;;5.40;99.90;;;;;;4984778;28;20607;-85
2024/01/12 09:26:16;;;;;;;0.30;0.30;;;5.60;99.90;;;;;;4984093;28;20561;-85
2024/01/12 09:28:42;;;;;;;0.43;0.43;;;5.70;99.90;;;;;;5015592;28;20207;-85
2024/01/12 09:31:08;;;;;;;9.43;2.00;;;5.70;99.90;;;;;;4999223;28;20234;-85
2024/01/12 09:33:34;;;;;;;1.60;1.43;;;5.50;99.90;;;;;;4984157;28;20878;-84
2024/01/12 09:36:02;;;;;;;0.40;0.40;;;5.40;99.90;;;;;;5000370;28;20199;-85
2024/01/12 09:38:28;;;;;;;0.30;0.30;;;5.50;99.90;;;;;;5001119;28;20197;-82
2024/01/12 09:40:58;;;;;;;0.97;0.97;;;5.60;99.90;;;;;;4999677;28;20219;-89
2024/01/12 09:43:28;;;;;;;0.40;0.40;;;5.70;99.90;;;;;;4976274;28;20212;-91
2024/01/12 09:45:58;;;;;;;0.43;0.43;;;5.60;99.90;;;;;;5001144;28;20219;-87
2024/01/12 09:48:26;;;;;;;0.20;0.20;;;5.60;99.90;;;;;;5017693;28;20230;-87
2024/01/12 09:50:55;;;;;;;0.30;0.30;;;5.50;99.90;;;;;;5001800;28;20326;-87
2024/01/12 09:53:21;;;;;;;1.17;0.53;;;5.70;99.90;;;;;;5001972;28;20239;-88
2024/01/12 09:55:50;;;;;;;0.30;0.30;;;5.80;99.90;;;;;;5001602;28;20238;-87
2024/01/12 09:58:21;;;;;;;0.80;0.53;;;5.70;99.90;;;;;;5010063;28;20336;-90
2024/01/12 10:00:51;;;;;;;1.93;1.93;;;5.80;99.90;;;;;;5005805;28;20578;-89
2024/01/12 10:03:17;;;;;;;0.20;0.20;;;5.90;99.90;;;;;;5001129;28;20187;-91
2024/01/12 10:05:44;;;;;;;0.60;0.60;;;5.80;99.90;;;;;;5002718;28;20292;-86
2024/01/12 10:08:12;;;;;;;20.57;1.03;;;5.90;99.90;;;;;;5001084;28;20219;-86
2024/01/12 10:10:41;;;;;;;0.30;0.30;;;5.90;99.90;;;;;;5001203;28;20221;-89
2024/01/12 10:13:07;;;;;;;0.40;0.40;;;5.80;99.90;;;;;;5001079;28;20334;-87
2024/01/12 10:15:42;;;;;;;0.27;0.27;;;5.70;99.90;;;;;;5002163;28;20249;-87
2024/01/12 10:18:08;;;;;;;0.50;0.50;;;5.80;99.90;;;;;;4994973;28;20199;-86
2024/01/12 10:20:37;;;;;;;2.67;0.70;;;5.90;99.90;;;;;;4979285;28;20187;-86
2024/01/12 10:23:03;;;;;;;0.20;0.20;;;6.00;99.90;;;;;;4992004;28;20219;-87
2024/01/12 10:25:29;;;;;;;1.93;1.00;;;6.10;99.90;;;;;;5002061;28;20369;-87
2024/01/12 10:28:06;;;;;;;1.60;0.33;;;6.10;99.90;;;;;;5000518;28;20303;-86
2024/01/12 10:30:32;;;;;;;0.23;0.23;;;6.00;99.90;;;;;;5017239;28;20219;-88
2024/01/12 10:33:00;;;;;;;0.20;0.20;;;6.00;99.90;;;;;;5000676;28;20245;-87
2024/01/12 10:35:26;;;;;;;0.20;0.20;;;5.90;99.90;;;;;;5001591;28;20234;-88
2024/01/12 10:37:56;;;;;;;0.20;0.20;;;5.80;99.90;;;;;;5001633;28;20225;-88
2024/01/12 10:40:23;;;;;;;0.30;0.30;;;5.90;99.90;;;;;;5034503;28;20301;-88
2024/01/12 10:42:49;;;;;;;0.43;0.43;;;5.80;99.90;;;;;;4981969;28;20224;-88
2024/01/12 10:45:21;;;;;;;10.60;1.03;;;5.70;99.90;;;;;;5018008;28;20192;-87
2024/01/12 10:48:00;;;;;;;1.70;1.27;;;5.80;99.90;;;;;;5002760;28;20194;-87
2024/01/12 10:50:35;;;;;;;0.23;0.23;;;5.70;99.90;;;;;;4983184;28;20220;-87
2024/01/12 10:53:06;;;;;;;0.40;0.40;;;5.70;99.90;;;;;;4997791;28;20219;-89
2024/01/12 10:55:36;;;;;;;1.17;1.17;;;5.80;99.90;;;;;;5010601;28;20245;-87
2024/01/12 10:58:03;;;;;;;0.47;0.47;;;6.10;99.90;;;;;;5032748;28;20215;-88
2024/01/12 11:00:34;;;;;;;0.30;0.30;;;6.00;99.90;;;;;;4993278;28;20227;-87
2024/01/12 11:03:02;;;;;;;0.67;0.67;;;5.90;99.90;;;;;;5021463;28;20188;-89
2024/01/12 11:05:29;;;;;;;2.63;1.43;;;6.00;99.90;;;;;;5014940;28;20191;-88
2024/01/12 11:08:00;;;;;;;0.50;0.50;;;6.00;99.90;;;;;;5006338;28;20770;-87
2024/01/12 11:10:30;;;;;;;0.77;0.77;;;5.80;99.90;;;;;;5005621;28;20212;-87
2024/01/12 11:12:59;;;;;;;0.33;0.33;;;6.00;99.90;;;;;;5021203;28;20243;-88
2024/01/12 11:15:24;;;;;;;0.83;0.83;;;6.00;99.90;;;;;;5011593;28;20268;-90
2024/01/12 11:17:50;;;;;;;0.30;0.30;;;5.90;99.90;;;;;;5000184;28;20809;-88
2024/01/12 11:20:22;;;;;;;0.30;0.30;;;5.90;99.90;;;;;;5004174;28;20302;-87
2024/01/12 11:22:49;;;;;;;0.30;0.30;;;5.90;99.90;;;;;;4997694;28;20219;-86
2024/01/12 11:25:18;;;;;;;0.87;0.60;;;5.80;99.90;;;;;;5003155;28;20219;-89
2024/01/12 11:27:51;;;;;;;0.20;0.20;;;5.90;99.90;;;;;;4988708;28;20223;-86
2024/01/12 11:30:21;;;;;;;0.30;0.30;;;5.80;99.90;;;;;;5004277;28;20175;-87
2024/01/12 11:32:47;;;;;;;4.50;1.47;;;5.70;99.90;;;;;;5005436;28;21106;-86
2024/01/12 11:35:14;;;;;;;0.27;0.27;;;5.80;99.90;;;;;;5005308;28;20398;-87
2024/01/12 11:38:07;;;;;;;0.30;0.30;;;5.70;99.90;;;;;;5036183;28;20538;-86
2024/01/12 11:40:34;;;;;;;0.10;0.10;;;5.60;99.90;;;;;;5030731;28;20211;-87
2024/01/12 11:43:00;;;;;;;0.20;0.20;;;5.60;99.90;;;;;;5005233;28;20245;-87
2024/01/12 11:45:28;;;;;;;0.40;0.40;;;5.70;99.90;;;;;;5003298;28;21050;-91
2024/01/12 11:47:54;;;;;;;0.20;0.20;;;5.70;99.90;;;;;;5029059;28;20648;-86
2024/01/12 11:50:24;;;;;;;0.40;0.40;;;5.90;99.90;;;;;;5002901;28;20234;-89
2024/01/12 11:53:00;;;;;;;0.20;0.20;;;5.80;99.90;;;;;;5004300;28;20234;-87
2024/01/12 11:55:26;;;;;;;1.00;1.00;;;5.90;99.90;;;;;;5036294;28;20245;-88
2024/01/12 11:57:55;;;;;;;0.40;0.40;;;6.00;99.90;;;;;;5036595;28;20211;-87
2024/01/12 12:00:25;;;;;;;6.30;0.53;;;6.00;99.90;;;;;;5003542;28;20230;-87
2024/01/12 12:02:51;;;;;;;0.13;0.13;;;6.10;99.90;;;;;;4997035;28;20261;-88
2024/01/12 12:05:17;;;;;;;2.63;0.43;;;6.00;99.90;;;;;;5002159;28;20691;-86
2024/01/12 12:07:46;;;;;;;0.20;0.20;;;5.90;99.90;;;;;;5002162;28;20215;-91
2024/01/12 12:10:14;;;;;;;0.13;0.13;;;5.90;99.90;;;;;;5019250;28;20215;-87
2024/01/12 12:12:40;;;;;;;0.20;0.20;;;5.90;99.90;;;;;;5004695;28;20754;-88
2024/01/12 12:15:12;;;;;;;0.43;0.43;;;5.90;99.90;;;;;;5019045;28;20289;-89
2024/01/12 12:17:48;;;;;;;0.30;0.30;;;6.00;99.90;;;;;;5005158;28;20187;-88
2024/01/12 12:20:17;;;;;;;0.20;0.20;;;6.00;99.90;;;;;;5004327;28;20717;-91
2024/01/12 12:22:44;;;;;;;0.50;0.50;;;6.10;99.90;;;;;;5012358;28;20312;-89
2024/01/12 12:25:12;;;;;;;0.30;0.30;;;6.00;99.90;;;;;;4989022;28;20445;-90
2024/01/12 12:27:42;;;;;;;1.33;1.13;;;5.90;99.90;;;;;;5003594;28;20222;-89
2024/01/12 12:30:13;;;;;;;0.60;0.60;;;5.80;99.90;;;;;;5003084;28;20206;-88
2024/01/12 12:32:40;;;;;;;0.20;0.20;;;5.90;99.90;;;;;;5004046;28;20215;-89
2024/01/12 12:35:24;;;;;;;0.40;0.40;;;5.90;99.90;;;;;;4988659;28;20592;-89
2024/01/12 12:37:53;;;;;;;0.20;0.20;;;5.90;99.90;;;;;;5004924;28;20618;-88
2024/01/12 12:40:25;;;;;;;0.30;0.30;;;6.00;99.90;;;;;;5003296;28;20282;-89
2024/01/12 12:42:57;;;;;;;0.40;0.40;;;6.00;99.90;;;;;;5012371;28;20219;-87
2024/01/12 12:45:23;;;;;;;0.60;0.50;;;6.00;99.90;;;;;;4987367;28;20702;-87
2024/01/12 12:47:53;;;;;;;1.03;0.60;;;5.90;99.90;;;;;;5004419;28;20187;-90
2024/01/12 12:50:19;;;;;;;0.20;0.20;;;5.90;99.90;;;;;;5001963;28;20231;-86
2024/01/12 12:52:45;;;;;;;0.30;0.30;;;5.90;99.90;;;;;;4985750;28;20691;-88
2024/01/12 12:55:12;;;;;;;0.30;0.30;;;5.90;99.90;;;;;;5003894;28;20614;-89